sensor_id;sensor_type;location;lat;lon;timestamp;P1;durP1;ratioP1;P2;durP2;ratioP2
4889;SDS011;2459;42.268;23.112;2023-06-22T00:01:08;14.40;;;9.47;;
4889;SDS011;2459;42.268;23.112;2023-06-22T00:03:34;23.43;;;10.80;;
4889;SDS011;2459;42.268;23.112;2023-06-22T00:06:01;16.80;;;9.50;;
4889;SDS011;2459;42.268;23.112;2023-06-22T00:08:27;15.73;;;10.67;;
4889;SDS011;2459;42.268;23.112;2023-06-22T00:10:54;17.70;;;11.53;;
4889;SDS011;2459;42.268;23.112;2023-06-22T00:13:20;10.90;;;9.27;;
4889;SDS011;2459;42.268;23.112;2023-06-22T00:15:47;14.40;;;10.13;;
4889;SDS011;2459;42.268;23.112;2023-06-22T00:18:15;15.10;;;10.90;;
4889;SDS011;2459;42.268;23.112;2023-06-22T00:20:41;14.40;;;10.87;;
4889;SDS011;2459;42.268;23.112;2023-06-22T00:23:08;21.10;;;10.43;;
4889;SDS011;2459;42.268;23.112;2023-06-22T00:25:34;14.70;;;10.37;;
4889;SDS011;2459;42.268;23.112;2023-06-22T00:28:01;12.13;;;9.80;;
4889;SDS011;2459;42.268;23.112;2023-06-22T00:30:27;13.43;;;10.00;;
4889;SDS011;2459;42.268;23.112;2023-06-22T00:32:54;16.30;;;11.40;;
4889;SDS011;2459;42.268;23.112;2023-06-22T00:35:22;16.83;;;10.90;;
4889;SDS011;2459;42.268;23.112;2023-06-22T00:37:48;12.77;;;9.17;;
4889;SDS011;2459;42.268;23.112;2023-06-22T00:40:16;13.70;;;10.83;;
4889;SDS011;2459;42.268;23.112;2023-06-22T00:42:46;17.83;;;11.70;;
4889;SDS011;2459;42.268;23.112;2023-06-22T00:45:13;12.40;;;10.17;;
4889;SDS011;2459;42.268;23.112;2023-06-22T00:47:40;13.27;;;10.67;;
4889;SDS011;2459;42.268;23.112;2023-06-22T00:50:09;15.03;;;10.67;;
4889;SDS011;2459;42.268;23.112;2023-06-22T00:52:44;13.87;;;12.03;;
4889;SDS011;2459;42.268;23.112;2023-06-22T00:55:11;20.03;;;11.40;;
4889;SDS011;2459;42.268;23.112;2023-06-22T00:57:38;17.27;;;11.83;;
4889;SDS011;2459;42.268;23.112;2023-06-22T01:00:05;23.80;;;10.80;;
4889;SDS011;2459;42.268;23.112;2023-06-22T01:02:41;17.30;;;9.83;;
4889;SDS011;2459;42.268;23.112;2023-06-22T01:05:10;15.40;;;9.80;;
4889;SDS011;2459;42.268;23.112;2023-06-22T01:07:39;14.10;;;10.37;;
4889;SDS011;2459;42.268;23.112;2023-06-22T01:10:11;17.50;;;10.03;;
4889;SDS011;2459;42.268;23.112;2023-06-22T01:12:42;14.27;;;10.90;;
4889;SDS011;2459;42.268;23.112;2023-06-22T01:15:11;11.13;;;9.87;;
4889;SDS011;2459;42.268;23.112;2023-06-22T01:17:40;14.23;;;10.10;;
4889;SDS011;2459;42.268;23.112;2023-06-22T01:20:07;16.20;;;11.37;;
4889;SDS011;2459;42.268;23.112;2023-06-22T01:22:52;13.87;;;10.33;;
4889;SDS011;2459;42.268;23.112;2023-06-22T01:25:26;13.93;;;10.47;;
4889;SDS011;2459;42.268;23.112;2023-06-22T01:27:56;17.57;;;12.13;;
4889;SDS011;2459;42.268;23.112;2023-06-22T01:30:27;14.70;;;10.87;;
4889;SDS011;2459;42.268;23.112;2023-06-22T01:32:54;16.90;;;10.40;;
4889;SDS011;2459;42.268;23.112;2023-06-22T01:35:21;15.87;;;10.63;;
4889;SDS011;2459;42.268;23.112;2023-06-22T01:37:48;15.10;;;9.73;;
4889;SDS011;2459;42.268;23.112;2023-06-22T01:40:15;17.33;;;11.67;;
4889;SDS011;2459;42.268;23.112;2023-06-22T01:42:42;16.83;;;10.97;;
4889;SDS011;2459;42.268;23.112;2023-06-22T01:45:09;13.83;;;10.97;;
4889;SDS011;2459;42.268;23.112;2023-06-22T01:47:37;20.83;;;10.70;;
4889;SDS011;2459;42.268;23.112;2023-06-22T01:50:05;13.43;;;10.40;;
4889;SDS011;2459;42.268;23.112;2023-06-22T01:52:31;13.30;;;10.83;;
4889;SDS011;2459;42.268;23.112;2023-06-22T01:54:59;19.93;;;10.80;;
4889;SDS011;2459;42.268;23.112;2023-06-22T01:57:25;18.13;;;11.37;;
4889;SDS011;2459;42.268;23.112;2023-06-22T01:59:53;20.27;;;13.27;;
4889;SDS011;2459;42.268;23.112;2023-06-22T02:02:23;18.80;;;11.60;;
4889;SDS011;2459;42.268;23.112;2023-06-22T02:04:56;15.57;;;10.23;;
4889;SDS011;2459;42.268;23.112;2023-06-22T02:07:23;16.23;;;10.80;;
4889;SDS011;2459;42.268;23.112;2023-06-22T02:09:53;14.80;;;10.20;;
4889;SDS011;2459;42.268;23.112;2023-06-22T02:12:21;16.80;;;12.53;;
4889;SDS011;2459;42.268;23.112;2023-06-22T02:14:48;19.73;;;11.57;;
4889;SDS011;2459;42.268;23.112;2023-06-22T02:17:16;14.67;;;10.93;;
4889;SDS011;2459;42.268;23.112;2023-06-22T02:19:42;16.63;;;11.13;;
4889;SDS011;2459;42.268;23.112;2023-06-22T02:22:10;15.40;;;11.93;;
4889;SDS011;2459;42.268;23.112;2023-06-22T02:24:37;15.37;;;12.47;;
4889;SDS011;2459;42.268;23.112;2023-06-22T02:27:04;19.23;;;12.47;;
4889;SDS011;2459;42.268;23.112;2023-06-22T02:29:32;18.30;;;13.60;;
4889;SDS011;2459;42.268;23.112;2023-06-22T02:31:58;16.10;;;12.90;;
4889;SDS011;2459;42.268;23.112;2023-06-22T02:34:25;14.40;;;11.07;;
4889;SDS011;2459;42.268;23.112;2023-06-22T02:36:51;15.10;;;11.70;;
4889;SDS011;2459;42.268;23.112;2023-06-22T02:39:23;34.13;;;11.90;;
4889;SDS011;2459;42.268;23.112;2023-06-22T02:41:49;18.43;;;12.00;;
4889;SDS011;2459;42.268;23.112;2023-06-22T02:44:16;20.50;;;13.03;;
4889;SDS011;2459;42.268;23.112;2023-06-22T02:46:42;31.83;;;12.90;;
4889;SDS011;2459;42.268;23.112;2023-06-22T02:49:09;16.37;;;11.50;;
4889;SDS011;2459;42.268;23.112;2023-06-22T02:51:38;19.30;;;12.40;;
4889;SDS011;2459;42.268;23.112;2023-06-22T02:54:04;18.77;;;13.00;;
4889;SDS011;2459;42.268;23.112;2023-06-22T02:56:32;26.43;;;14.67;;
4889;SDS011;2459;42.268;23.112;2023-06-22T02:58:59;19.47;;;13.87;;
4889;SDS011;2459;42.268;23.112;2023-06-22T03:01:26;20.47;;;16.30;;
4889;SDS011;2459;42.268;23.112;2023-06-22T03:03:53;16.80;;;12.50;;
4889;SDS011;2459;42.268;23.112;2023-06-22T03:06:19;22.10;;;14.90;;
4889;SDS011;2459;42.268;23.112;2023-06-22T03:08:48;38.57;;;14.80;;
4889;SDS011;2459;42.268;23.112;2023-06-22T03:11:14;19.13;;;13.83;;
4889;SDS011;2459;42.268;23.112;2023-06-22T03:13:42;18.70;;;14.37;;
4889;SDS011;2459;42.268;23.112;2023-06-22T03:16:09;19.77;;;14.70;;
4889;SDS011;2459;42.268;23.112;2023-06-22T03:18:35;16.00;;;12.93;;
4889;SDS011;2459;42.268;23.112;2023-06-22T03:21:02;16.23;;;12.93;;
4889;SDS011;2459;42.268;23.112;2023-06-22T03:23:28;23.90;;;14.73;;
4889;SDS011;2459;42.268;23.112;2023-06-22T03:25:54;21.13;;;14.13;;
4889;SDS011;2459;42.268;23.112;2023-06-22T03:28:21;24.23;;;15.70;;
4889;SDS011;2459;42.268;23.112;2023-06-22T03:30:49;21.70;;;14.00;;
4889;SDS011;2459;42.268;23.112;2023-06-22T03:33:16;19.27;;;12.93;;
4889;SDS011;2459;42.268;23.112;2023-06-22T03:35:42;14.20;;;11.47;;
4889;SDS011;2459;42.268;23.112;2023-06-22T03:38:09;16.40;;;12.83;;
4889;SDS011;2459;42.268;23.112;2023-06-22T03:40:35;15.90;;;11.43;;
4889;SDS011;2459;42.268;23.112;2023-06-22T03:43:01;16.93;;;13.43;;
4889;SDS011;2459;42.268;23.112;2023-06-22T03:45:28;19.63;;;11.73;;
4889;SDS011;2459;42.268;23.112;2023-06-22T03:47:56;16.90;;;12.00;;
4889;SDS011;2459;42.268;23.112;2023-06-22T03:50:22;22.50;;;14.13;;
4889;SDS011;2459;42.268;23.112;2023-06-22T03:52:49;20.50;;;12.77;;
4889;SDS011;2459;42.268;23.112;2023-06-22T03:55:16;26.23;;;16.37;;
4889;SDS011;2459;42.268;23.112;2023-06-22T03:57:43;23.57;;;11.93;;
4889;SDS011;2459;42.268;23.112;2023-06-22T04:00:10;24.80;;;12.67;;
4889;SDS011;2459;42.268;23.112;2023-06-22T04:02:36;16.77;;;13.67;;
4889;SDS011;2459;42.268;23.112;2023-06-22T04:05:04;21.20;;;13.03;;
4889;SDS011;2459;42.268;23.112;2023-06-22T04:07:31;20.80;;;12.67;;
4889;SDS011;2459;42.268;23.112;2023-06-22T04:09:57;23.60;;;15.20;;
4889;SDS011;2459;42.268;23.112;2023-06-22T04:12:24;27.37;;;14.47;;
4889;SDS011;2459;42.268;23.112;2023-06-22T04:14:50;25.43;;;16.00;;
4889;SDS011;2459;42.268;23.112;2023-06-22T04:17:17;31.40;;;16.00;;
4889;SDS011;2459;42.268;23.112;2023-06-22T04:19:44;27.97;;;15.30;;
4889;SDS011;2459;42.268;23.112;2023-06-22T04:22:15;29.57;;;14.87;;
4889;SDS011;2459;42.268;23.112;2023-06-22T04:24:41;24.93;;;14.10;;
4889;SDS011;2459;42.268;23.112;2023-06-22T04:27:08;24.03;;;15.23;;
4889;SDS011;2459;42.268;23.112;2023-06-22T04:29:34;28.20;;;14.90;;
4889;SDS011;2459;42.268;23.112;2023-06-22T04:32:01;26.43;;;15.03;;
4889;SDS011;2459;42.268;23.112;2023-06-22T04:34:30;21.17;;;13.73;;
4889;SDS011;2459;42.268;23.112;2023-06-22T04:37:00;32.00;;;14.77;;
4889;SDS011;2459;42.268;23.112;2023-06-22T04:39:27;24.37;;;13.97;;
4889;SDS011;2459;42.268;23.112;2023-06-22T04:41:54;19.53;;;13.07;;
4889;SDS011;2459;42.268;23.112;2023-06-22T04:44:25;22.33;;;14.80;;
4889;SDS011;2459;42.268;23.112;2023-06-22T04:46:52;19.63;;;13.20;;
4889;SDS011;2459;42.268;23.112;2023-06-22T04:49:24;29.23;;;14.10;;
4889;SDS011;2459;42.268;23.112;2023-06-22T04:51:58;23.70;;;13.07;;
4889;SDS011;2459;42.268;23.112;2023-06-22T04:54:24;21.77;;;13.90;;
4889;SDS011;2459;42.268;23.112;2023-06-22T04:56:52;28.07;;;15.03;;
4889;SDS011;2459;42.268;23.112;2023-06-22T04:59:21;21.90;;;13.27;;
4889;SDS011;2459;42.268;23.112;2023-06-22T05:01:48;27.70;;;12.73;;
4889;SDS011;2459;42.268;23.112;2023-06-22T05:04:16;17.60;;;12.57;;
4889;SDS011;2459;42.268;23.112;2023-06-22T05:06:43;14.87;;;11.53;;
4889;SDS011;2459;42.268;23.112;2023-06-22T05:09:10;19.67;;;12.90;;
4889;SDS011;2459;42.268;23.112;2023-06-22T05:11:37;18.87;;;11.70;;
4889;SDS011;2459;42.268;23.112;2023-06-22T05:14:05;39.20;;;12.97;;
4889;SDS011;2459;42.268;23.112;2023-06-22T05:16:32;20.63;;;12.33;;
4889;SDS011;2459;42.268;23.112;2023-06-22T05:18:59;25.40;;;13.20;;
4889;SDS011;2459;42.268;23.112;2023-06-22T05:21:28;16.20;;;11.20;;
4889;SDS011;2459;42.268;23.112;2023-06-22T05:23:54;17.43;;;11.60;;
4889;SDS011;2459;42.268;23.112;2023-06-22T05:26:21;15.53;;;11.57;;
4889;SDS011;2459;42.268;23.112;2023-06-22T05:28:47;18.63;;;10.70;;
4889;SDS011;2459;42.268;23.112;2023-06-22T05:31:16;17.23;;;10.50;;
4889;SDS011;2459;42.268;23.112;2023-06-22T05:33:45;20.77;;;9.80;;
4889;SDS011;2459;42.268;23.112;2023-06-22T05:36:11;15.77;;;10.63;;
4889;SDS011;2459;42.268;23.112;2023-06-22T05:38:38;15.17;;;11.40;;
4889;SDS011;2459;42.268;23.112;2023-06-22T05:41:05;12.43;;;9.02;;
4889;SDS011;2459;42.268;23.112;2023-06-22T05:43:32;23.70;;;11.90;;
4889;SDS011;2459;42.268;23.112;2023-06-22T05:45:59;24.48;;;11.43;;
4889;SDS011;2459;42.268;23.112;2023-06-22T05:48:27;14.40;;;9.75;;
4889;SDS011;2459;42.268;23.112;2023-06-22T05:50:54;15.63;;;10.87;;
4889;SDS011;2459;42.268;23.112;2023-06-22T05:53:20;14.03;;;9.63;;
4889;SDS011;2459;42.268;23.112;2023-06-22T05:55:47;26.45;;;11.13;;
4889;SDS011;2459;42.268;23.112;2023-06-22T05:58:14;23.88;;;11.55;;
4889;SDS011;2459;42.268;23.112;2023-06-22T06:00:41;22.58;;;10.85;;
4889;SDS011;2459;42.268;23.112;2023-06-22T06:03:08;17.27;;;11.00;;
4889;SDS011;2459;42.268;23.112;2023-06-22T06:05:37;24.60;;;11.30;;
4889;SDS011;2459;42.268;23.112;2023-06-22T06:08:04;25.50;;;9.82;;
4889;SDS011;2459;42.268;23.112;2023-06-22T06:10:31;21.95;;;10.90;;
4889;SDS011;2459;42.268;23.112;2023-06-22T06:12:58;12.93;;;10.00;;
4889;SDS011;2459;42.268;23.112;2023-06-22T06:15:27;14.57;;;10.48;;
4889;SDS011;2459;42.268;23.112;2023-06-22T06:17:53;14.70;;;10.77;;
4889;SDS011;2459;42.268;23.112;2023-06-22T06:20:21;12.65;;;10.82;;
4889;SDS011;2459;42.268;23.112;2023-06-22T06:22:49;21.55;;;14.45;;
4889;SDS011;2459;42.268;23.112;2023-06-22T06:25:15;18.30;;;10.52;;
4889;SDS011;2459;42.268;23.112;2023-06-22T06:27:43;15.75;;;9.38;;
4889;SDS011;2459;42.268;23.112;2023-06-22T06:30:10;11.45;;;9.55;;
4889;SDS011;2459;42.268;23.112;2023-06-22T06:32:37;14.18;;;9.90;;
4889;SDS011;2459;42.268;23.112;2023-06-22T06:35:05;16.10;;;10.40;;
4889;SDS011;2459;42.268;23.112;2023-06-22T06:37:31;13.65;;;10.00;;
4889;SDS011;2459;42.268;23.112;2023-06-22T06:39:59;16.38;;;11.02;;
4889;SDS011;2459;42.268;23.112;2023-06-22T06:42:25;12.65;;;9.50;;
4889;SDS011;2459;42.268;23.112;2023-06-22T06:44:52;15.70;;;10.48;;
4889;SDS011;2459;42.268;23.112;2023-06-22T06:47:20;20.23;;;9.85;;
4889;SDS011;2459;42.268;23.112;2023-06-22T06:49:46;11.63;;;10.00;;
4889;SDS011;2459;42.268;23.112;2023-06-22T06:52:13;13.90;;;8.50;;
4889;SDS011;2459;42.268;23.112;2023-06-22T06:54:41;13.10;;;10.10;;
4889;SDS011;2459;42.268;23.112;2023-06-22T06:57:09;12.55;;;9.25;;
4889;SDS011;2459;42.268;23.112;2023-06-22T06:59:41;11.07;;;9.93;;
4889;SDS011;2459;42.268;23.112;2023-06-22T07:02:07;20.05;;;9.90;;
4889;SDS011;2459;42.268;23.112;2023-06-22T07:04:34;13.98;;;10.57;;
4889;SDS011;2459;42.268;23.112;2023-06-22T07:07:01;10.65;;;9.18;;
4889;SDS011;2459;42.268;23.112;2023-06-22T07:09:27;23.55;;;8.82;;
4889;SDS011;2459;42.268;23.112;2023-06-22T07:11:54;19.95;;;10.63;;
4889;SDS011;2459;42.268;23.112;2023-06-22T07:14:22;18.80;;;9.75;;
4889;SDS011;2459;42.268;23.112;2023-06-22T07:16:48;15.27;;;11.15;;
4889;SDS011;2459;42.268;23.112;2023-06-22T07:19:15;12.25;;;9.10;;
4889;SDS011;2459;42.268;23.112;2023-06-22T07:21:56;12.05;;;9.73;;
4889;SDS011;2459;42.268;23.112;2023-06-22T07:24:30;15.00;;;9.90;;
4889;SDS011;2459;42.268;23.112;2023-06-22T07:26:57;10.68;;;9.60;;
4889;SDS011;2459;42.268;23.112;2023-06-22T07:29:25;15.05;;;11.38;;
4889;SDS011;2459;42.268;23.112;2023-06-22T07:31:52;11.38;;;10.18;;
4889;SDS011;2459;42.268;23.112;2023-06-22T07:34:19;21.90;;;12.18;;
4889;SDS011;2459;42.268;23.112;2023-06-22T07:36:48;11.93;;;10.55;;
4889;SDS011;2459;42.268;23.112;2023-06-22T07:39:20;17.40;;;11.00;;
4889;SDS011;2459;42.268;23.112;2023-06-22T07:41:50;15.35;;;10.02;;
4889;SDS011;2459;42.268;23.112;2023-06-22T07:44:17;14.85;;;13.18;;
4889;SDS011;2459;42.268;23.112;2023-06-22T07:46:45;12.70;;;10.80;;
4889;SDS011;2459;42.268;23.112;2023-06-22T07:49:11;33.53;;;12.15;;
4889;SDS011;2459;42.268;23.112;2023-06-22T07:51:38;24.48;;;12.55;;
4889;SDS011;2459;42.268;23.112;2023-06-22T07:54:04;20.13;;;11.32;;
4889;SDS011;2459;42.268;23.112;2023-06-22T07:56:31;23.17;;;11.10;;
4889;SDS011;2459;42.268;23.112;2023-06-22T07:58:58;14.20;;;10.35;;
4889;SDS011;2459;42.268;23.112;2023-06-22T08:01:26;15.82;;;11.20;;
4889;SDS011;2459;42.268;23.112;2023-06-22T08:03:53;12.45;;;9.73;;
4889;SDS011;2459;42.268;23.112;2023-06-22T08:06:20;14.80;;;11.05;;
4889;SDS011;2459;42.268;23.112;2023-06-22T08:08:46;11.98;;;9.88;;
4889;SDS011;2459;42.268;23.112;2023-06-22T08:11:14;18.02;;;9.80;;
4889;SDS011;2459;42.268;23.112;2023-06-22T08:13:40;15.60;;;9.88;;
4889;SDS011;2459;42.268;23.112;2023-06-22T08:16:07;16.88;;;8.90;;
4889;SDS011;2459;42.268;23.112;2023-06-22T08:18:33;10.60;;;9.00;;
4889;SDS011;2459;42.268;23.112;2023-06-22T08:21:01;9.43;;;8.35;;
4889;SDS011;2459;42.268;23.112;2023-06-22T08:23:28;28.55;;;10.70;;
4889;SDS011;2459;42.268;23.112;2023-06-22T08:25:54;14.35;;;8.45;;
4889;SDS011;2459;42.268;23.112;2023-06-22T08:28:21;11.90;;;10.45;;
4889;SDS011;2459;42.268;23.112;2023-06-22T08:30:48;12.13;;;9.75;;
4889;SDS011;2459;42.268;23.112;2023-06-22T08:33:14;14.38;;;9.40;;
4889;SDS011;2459;42.268;23.112;2023-06-22T08:35:41;25.60;;;9.07;;
4889;SDS011;2459;42.268;23.112;2023-06-22T08:38:09;9.77;;;7.47;;
4889;SDS011;2459;42.268;23.112;2023-06-22T08:40:40;8.30;;;7.55;;
4889;SDS011;2459;42.268;23.112;2023-06-22T08:43:07;17.63;;;8.35;;
4889;SDS011;2459;42.268;23.112;2023-06-22T08:45:33;18.38;;;9.65;;
4889;SDS011;2459;42.268;23.112;2023-06-22T08:48:00;10.63;;;7.28;;
4889;SDS011;2459;42.268;23.112;2023-06-22T08:50:26;9.35;;;6.63;;
4889;SDS011;2459;42.268;23.112;2023-06-22T08:52:53;14.48;;;8.35;;
4889;SDS011;2459;42.268;23.112;2023-06-22T08:55:21;11.38;;;8.93;;
4889;SDS011;2459;42.268;23.112;2023-06-22T08:57:47;16.27;;;8.90;;
4889;SDS011;2459;42.268;23.112;2023-06-22T09:00:14;11.00;;;8.00;;
4889;SDS011;2459;42.268;23.112;2023-06-22T09:02:45;10.23;;;7.85;;
4889;SDS011;2459;42.268;23.112;2023-06-22T09:05:12;10.95;;;7.70;;
4889;SDS011;2459;42.268;23.112;2023-06-22T09:07:39;13.13;;;5.97;;
4889;SDS011;2459;42.268;23.112;2023-06-22T09:10:06;6.68;;;5.95;;
4889;SDS011;2459;42.268;23.112;2023-06-22T09:12:34;9.38;;;5.72;;
4889;SDS011;2459;42.268;23.112;2023-06-22T09:15:03;8.18;;;6.43;;
4889;SDS011;2459;42.268;23.112;2023-06-22T09:17:29;8.57;;;5.57;;
4889;SDS011;2459;42.268;23.112;2023-06-22T09:19:56;7.25;;;6.03;;
4889;SDS011;2459;42.268;23.112;2023-06-22T09:22:22;6.00;;;5.47;;
4889;SDS011;2459;42.268;23.112;2023-06-22T09:24:54;5.53;;;5.03;;
4889;SDS011;2459;42.268;23.112;2023-06-22T09:27:20;5.95;;;4.80;;
4889;SDS011;2459;42.268;23.112;2023-06-22T09:29:48;6.03;;;5.30;;
4889;SDS011;2459;42.268;23.112;2023-06-22T09:32:15;7.18;;;5.13;;
4889;SDS011;2459;42.268;23.112;2023-06-22T09:34:41;5.40;;;4.95;;
4889;SDS011;2459;42.268;23.112;2023-06-22T09:37:08;6.07;;;5.10;;
4889;SDS011;2459;42.268;23.112;2023-06-22T09:39:34;6.85;;;4.97;;
4889;SDS011;2459;42.268;23.112;2023-06-22T09:42:01;8.95;;;5.85;;
4889;SDS011;2459;42.268;23.112;2023-06-22T09:44:28;6.05;;;5.55;;
4889;SDS011;2459;42.268;23.112;2023-06-22T09:46:56;8.00;;;5.22;;
4889;SDS011;2459;42.268;23.112;2023-06-22T09:49:23;7.03;;;6.05;;
4889;SDS011;2459;42.268;23.112;2023-06-22T09:51:49;6.47;;;5.63;;
4889;SDS011;2459;42.268;23.112;2023-06-22T09:54:16;5.20;;;4.80;;
4889;SDS011;2459;42.268;23.112;2023-06-22T09:56:42;7.32;;;6.63;;
4889;SDS011;2459;42.268;23.112;2023-06-22T09:59:09;8.05;;;5.97;;
4889;SDS011;2459;42.268;23.112;2023-06-22T10:01:35;6.45;;;5.93;;
4889;SDS011;2459;42.268;23.112;2023-06-22T10:04:03;10.40;;;6.65;;
4889;SDS011;2459;42.268;23.112;2023-06-22T10:06:29;6.90;;;5.00;;
4889;SDS011;2459;42.268;23.112;2023-06-22T10:08:56;4.90;;;4.55;;
4889;SDS011;2459;42.268;23.112;2023-06-22T10:11:22;6.20;;;5.60;;
4889;SDS011;2459;42.268;23.112;2023-06-22T10:13:54;5.28;;;4.70;;
4889;SDS011;2459;42.268;23.112;2023-06-22T10:16:20;5.13;;;4.72;;
4889;SDS011;2459;42.268;23.112;2023-06-22T10:18:49;9.63;;;5.50;;
4889;SDS011;2459;42.268;23.112;2023-06-22T10:21:17;5.93;;;4.93;;
4889;SDS011;2459;42.268;23.112;2023-06-22T10:23:43;7.03;;;5.88;;
4889;SDS011;2459;42.268;23.112;2023-06-22T10:26:10;7.18;;;5.18;;
4889;SDS011;2459;42.268;23.112;2023-06-22T10:28:36;10.13;;;6.88;;
4889;SDS011;2459;42.268;23.112;2023-06-22T10:31:03;5.47;;;5.07;;
4889;SDS011;2459;42.268;23.112;2023-06-22T10:33:29;5.32;;;4.80;;
4889;SDS011;2459;42.268;23.112;2023-06-22T10:35:56;5.22;;;4.82;;
4889;SDS011;2459;42.268;23.112;2023-06-22T10:38:24;5.43;;;5.00;;
4889;SDS011;2459;42.268;23.112;2023-06-22T10:40:50;20.67;;;5.53;;
4889;SDS011;2459;42.268;23.112;2023-06-22T10:43:17;7.53;;;5.25;;
4889;SDS011;2459;42.268;23.112;2023-06-22T10:45:43;8.23;;;5.38;;
4889;SDS011;2459;42.268;23.112;2023-06-22T10:48:10;5.82;;;5.32;;
4889;SDS011;2459;42.268;23.112;2023-06-22T10:50:36;6.13;;;5.63;;
4889;SDS011;2459;42.268;23.112;2023-06-22T10:53:03;8.43;;;6.28;;
4889;SDS011;2459;42.268;23.112;2023-06-22T10:55:31;9.32;;;5.35;;
4889;SDS011;2459;42.268;23.112;2023-06-22T10:57:57;6.82;;;6.13;;
4889;SDS011;2459;42.268;23.112;2023-06-22T11:00:23;7.32;;;5.45;;
4889;SDS011;2459;42.268;23.112;2023-06-22T11:02:50;6.05;;;5.45;;
4889;SDS011;2459;42.268;23.112;2023-06-22T11:05:17;8.77;;;5.68;;
4889;SDS011;2459;42.268;23.112;2023-06-22T11:07:43;8.45;;;7.55;;
4889;SDS011;2459;42.268;23.112;2023-06-22T11:10:10;6.43;;;5.90;;
4889;SDS011;2459;42.268;23.112;2023-06-22T11:12:38;14.18;;;6.75;;
4889;SDS011;2459;42.268;23.112;2023-06-22T11:15:05;7.00;;;6.40;;
4889;SDS011;2459;42.268;23.112;2023-06-22T11:17:32;8.68;;;7.40;;
4889;SDS011;2459;42.268;23.112;2023-06-22T11:19:59;6.60;;;6.00;;
4889;SDS011;2459;42.268;23.112;2023-06-22T11:22:25;12.45;;;7.78;;
4889;SDS011;2459;42.268;23.112;2023-06-22T11:24:52;10.70;;;7.68;;
4889;SDS011;2459;42.268;23.112;2023-06-22T11:27:18;8.45;;;7.47;;
4889;SDS011;2459;42.268;23.112;2023-06-22T11:29:46;8.77;;;7.80;;
4889;SDS011;2459;42.268;23.112;2023-06-22T11:32:13;8.63;;;7.80;;
4889;SDS011;2459;42.268;23.112;2023-06-22T11:34:39;8.23;;;7.43;;
4889;SDS011;2459;42.268;23.112;2023-06-22T11:37:06;8.05;;;7.35;;
4889;SDS011;2459;42.268;23.112;2023-06-22T11:39:32;10.48;;;7.65;;
4889;SDS011;2459;42.268;23.112;2023-06-22T11:41:59;8.18;;;7.10;;
4889;SDS011;2459;42.268;23.112;2023-06-22T11:44:25;10.13;;;8.98;;
4889;SDS011;2459;42.268;23.112;2023-06-22T11:46:53;12.80;;;8.77;;
4889;SDS011;2459;42.268;23.112;2023-06-22T11:49:20;10.30;;;9.30;;
4889;SDS011;2459;42.268;23.112;2023-06-22T11:51:47;11.98;;;7.90;;
4889;SDS011;2459;42.268;23.112;2023-06-22T11:54:13;12.57;;;9.50;;
4889;SDS011;2459;42.268;23.112;2023-06-22T11:56:39;11.98;;;9.60;;
4889;SDS011;2459;42.268;23.112;2023-06-22T11:59:06;14.30;;;9.45;;
4889;SDS011;2459;42.268;23.112;2023-06-22T12:01:32;11.40;;;8.88;;
4889;SDS011;2459;42.268;23.112;2023-06-22T12:04:00;16.85;;;10.02;;
4889;SDS011;2459;42.268;23.112;2023-06-22T12:06:30;13.65;;;10.48;;
4889;SDS011;2459;42.268;23.112;2023-06-22T12:08:57;13.30;;;10.77;;
4889;SDS011;2459;42.268;23.112;2023-06-22T12:11:23;16.05;;;9.15;;
4889;SDS011;2459;42.268;23.112;2023-06-22T12:14:08;16.13;;;10.95;;
4889;SDS011;2459;42.268;23.112;2023-06-22T12:16:37;15.00;;;10.23;;
4889;SDS011;2459;42.268;23.112;2023-06-22T12:19:05;13.45;;;9.57;;
4889;SDS011;2459;42.268;23.112;2023-06-22T12:21:31;12.48;;;9.32;;
4889;SDS011;2459;42.268;23.112;2023-06-22T12:23:58;16.60;;;9.82;;
4889;SDS011;2459;42.268;23.112;2023-06-22T12:26:24;17.65;;;9.90;;
4889;SDS011;2459;42.268;23.112;2023-06-22T12:28:53;17.63;;;10.52;;
4889;SDS011;2459;42.268;23.112;2023-06-22T12:31:27;11.90;;;9.65;;
4889;SDS011;2459;42.268;23.112;2023-06-22T12:33:53;9.77;;;8.75;;
4889;SDS011;2459;42.268;23.112;2023-06-22T12:36:21;9.40;;;8.50;;
4889;SDS011;2459;42.268;23.112;2023-06-22T12:38:49;11.63;;;10.18;;
4889;SDS011;2459;42.268;23.112;2023-06-22T12:41:17;18.02;;;10.10;;
4889;SDS011;2459;42.268;23.112;2023-06-22T12:43:43;12.30;;;9.15;;
4889;SDS011;2459;42.268;23.112;2023-06-22T12:46:10;11.80;;;9.07;;
4889;SDS011;2459;42.268;23.112;2023-06-22T12:48:36;13.40;;;10.80;;
4889;SDS011;2459;42.268;23.112;2023-06-22T12:51:07;12.60;;;9.27;;
4889;SDS011;2459;42.268;23.112;2023-06-22T12:53:36;14.95;;;9.38;;
4889;SDS011;2459;42.268;23.112;2023-06-22T12:56:02;13.35;;;8.85;;
4889;SDS011;2459;42.268;23.112;2023-06-22T12:58:29;13.90;;;8.98;;
4889;SDS011;2459;42.268;23.112;2023-06-22T13:00:55;16.95;;;9.63;;
4889;SDS011;2459;42.268;23.112;2023-06-22T13:03:21;10.48;;;9.25;;
4889;SDS011;2459;42.268;23.112;2023-06-22T13:05:50;8.00;;;7.30;;
4889;SDS011;2459;42.268;23.112;2023-06-22T13:08:16;11.07;;;9.68;;
4889;SDS011;2459;42.268;23.112;2023-06-22T13:10:44;9.02;;;7.60;;
4889;SDS011;2459;42.268;23.112;2023-06-22T13:13:10;15.45;;;6.85;;
4889;SDS011;2459;42.268;23.112;2023-06-22T13:15:37;18.67;;;5.55;;
4889;SDS011;2459;42.268;23.112;2023-06-22T13:18:05;16.58;;;6.10;;
4889;SDS011;2459;42.268;23.112;2023-06-22T13:20:32;37.10;;;8.02;;
4889;SDS011;2459;42.268;23.112;2023-06-22T13:23:00;33.33;;;6.45;;
4889;SDS011;2459;42.268;23.112;2023-06-22T13:25:28;8.55;;;5.70;;
4889;SDS011;2459;42.268;23.112;2023-06-22T13:27:57;16.75;;;7.78;;
4889;SDS011;2459;42.268;23.112;2023-06-22T13:30:23;19.93;;;7.63;;
4889;SDS011;2459;42.268;23.112;2023-06-22T13:32:50;14.17;;;6.57;;
4889;SDS011;2459;42.268;23.112;2023-06-22T13:35:17;17.63;;;10.20;;
4889;SDS011;2459;42.268;23.112;2023-06-22T13:37:50;29.13;;;11.13;;
4889;SDS011;2459;42.268;23.112;2023-06-22T13:40:18;16.70;;;11.60;;
4889;SDS011;2459;42.268;23.112;2023-06-22T13:42:45;19.33;;;12.17;;
4889;SDS011;2459;42.268;23.112;2023-06-22T13:45:15;26.13;;;12.37;;
4889;SDS011;2459;42.268;23.112;2023-06-22T13:47:44;20.83;;;11.43;;
4889;SDS011;2459;42.268;23.112;2023-06-22T13:50:14;20.23;;;10.90;;
4889;SDS011;2459;42.268;23.112;2023-06-22T13:52:40;37.83;;;13.33;;
4889;SDS011;2459;42.268;23.112;2023-06-22T13:55:07;27.83;;;9.90;;
4889;SDS011;2459;42.268;23.112;2023-06-22T13:57:34;16.13;;;9.47;;
4889;SDS011;2459;42.268;23.112;2023-06-22T14:00:02;19.67;;;10.60;;
4889;SDS011;2459;42.268;23.112;2023-06-22T14:02:35;13.87;;;8.97;;
4889;SDS011;2459;42.268;23.112;2023-06-22T14:05:06;19.00;;;9.20;;
4889;SDS011;2459;42.268;23.112;2023-06-22T14:07:35;23.47;;;10.03;;
4889;SDS011;2459;42.268;23.112;2023-06-22T14:10:02;10.60;;;8.60;;
4889;SDS011;2459;42.268;23.112;2023-06-22T14:12:29;12.40;;;9.03;;
4889;SDS011;2459;42.268;23.112;2023-06-22T14:14:55;18.00;;;11.93;;
4889;SDS011;2459;42.268;23.112;2023-06-22T14:17:22;20.00;;;10.63;;
4889;SDS011;2459;42.268;23.112;2023-06-22T14:19:52;11.82;;;8.32;;
4889;SDS011;2459;42.268;23.112;2023-06-22T14:22:18;14.07;;;9.27;;
4889;SDS011;2459;42.268;23.112;2023-06-22T14:24:45;12.93;;;7.88;;
4889;SDS011;2459;42.268;23.112;2023-06-22T14:27:11;15.98;;;8.75;;
4889;SDS011;2459;42.268;23.112;2023-06-22T14:29:38;10.13;;;8.00;;
4889;SDS011;2459;42.268;23.112;2023-06-22T14:32:05;12.48;;;8.57;;
4889;SDS011;2459;42.268;23.112;2023-06-22T14:34:32;18.15;;;9.60;;
4889;SDS011;2459;42.268;23.112;2023-06-22T14:37:02;9.93;;;7.15;;
4889;SDS011;2459;42.268;23.112;2023-06-22T14:39:29;12.40;;;7.25;;
4889;SDS011;2459;42.268;23.112;2023-06-22T14:41:55;12.13;;;6.63;;
4889;SDS011;2459;42.268;23.112;2023-06-22T14:44:22;10.98;;;6.10;;